createdAt,value
2022-08-17T00:00:42.674Z,99865.63
2022-08-17T00:02:59.676Z,99860.88
2022-08-17T00:05:04.205Z,99863.25
2022-08-17T00:07:05.816Z,99862.50
2022-08-17T00:09:07.456Z,99864.88
2022-08-17T00:11:15.251Z,99861.75
2022-08-17T00:13:22.606Z,99862.13
2022-08-17T00:15:26.791Z,99870.03
2022-08-17T00:17:28.519Z,99863.34
2022-08-17T00:19:30.165Z,99857.84
2022-08-17T00:21:44.672Z,99860.19
2022-08-17T00:23:54.999Z,99865.69
2022-08-17T00:25:56.611Z,99862.94
2022-08-17T00:27:58.198Z,99857.81
2022-08-17T00:29:59.849Z,99868.84
2022-08-17T00:33:23.148Z,99866.13
2022-08-17T00:34:27.899Z,99868.13
2022-08-17T00:36:30.041Z,99864.94
2022-08-17T00:38:32.682Z,99865.34
2022-08-17T00:40:40.611Z,99861.78
2022-08-17T00:42:47.956Z,99862.59
2022-08-17T00:44:49.671Z,99863.38
2022-08-17T00:46:51.336Z,99864.16
2022-08-17T00:48:54.684Z,99858.66
2022-08-17T00:51:01.462Z,99857.09
2022-08-17T00:53:04.441Z,99861.03
2022-08-17T00:55:07.272Z,99859.03
2022-08-17T00:57:12.618Z,99859.44
2022-08-17T00:59:19.313Z,99859.44
2022-08-17T01:01:22.146Z,99855.50
2022-08-17T01:03:25.732Z,99857.09
2022-08-17T01:05:31.822Z,99865.75
2022-08-17T01:07:34.385Z,99859.03
2022-08-17T01:09:40.310Z,99862.97
2022-08-17T01:11:41.950Z,99862.19
2022-08-17T01:13:45.055Z,99864.97
2022-08-17T01:15:57.329Z,99857.47
2022-08-17T01:17:58.907Z,99858.25
2022-08-17T01:20:00.742Z,99853.91
2022-08-17T01:22:08.989Z,99856.66
2022-08-17T01:24:11.958Z,99855.50
2022-08-17T01:26:13.734Z,99856.69
2022-08-17T01:28:33.614Z,99855.09
2022-08-17T01:30:57.375Z,99856.28
2022-08-17T01:32:59.762Z,99861.41
2022-08-17T01:35:01.557Z,99860.22
2022-08-17T01:37:03.381Z,99860.22
2022-08-17T01:39:06.684Z,99857.88
2022-08-17T01:41:14.227Z,99852.34
2022-08-17T01:43:19.619Z,99851.56
2022-08-17T01:45:24.497Z,99853.13
2022-08-17T01:47:26.067Z,99852.34
2022-08-17T01:49:27.875Z,99846.84
2022-08-17T01:51:31.402Z,99851.56
2022-08-17T01:53:36.524Z,99853.53
2022-08-17T01:55:42.757Z,99858.25
2022-08-17T01:57:46.035Z,99853.94
2022-08-17T01:59:47.691Z,99859.84
2022-08-17T02:01:49.329Z,99861.41
2022-08-17T02:03:54.561Z,99856.31
2022-08-17T02:06:05.249Z,99860.22
2022-08-17T02:08:06.966Z,99848.00
2022-08-17T02:10:16.716Z,99844.09
2022-08-17T02:12:47.444Z,99848.78
2022-08-17T02:14:45.105Z,99844.03
2022-08-17T02:16:46.723Z,99843.63
2022-08-17T02:18:48.362Z,99845.19
2022-08-17T02:20:50.033Z,99844.03
2022-08-17T02:22:51.930Z,99850.72
2022-08-17T02:25:00.887Z,99853.88
2022-08-17T02:27:03.797Z,99850.72
2022-08-17T02:29:05.393Z,99850.31
2022-08-17T02:31:11.075Z,99856.22
2022-08-17T02:33:12.680Z,99854.66
2022-08-17T02:35:14.935Z,99858.97
2022-08-17T02:37:21.100Z,99863.69
2022-08-17T02:39:22.719Z,99865.25
2022-08-17T02:41:24.306Z,99871.16
2022-08-17T02:43:26.571Z,99871.94
2022-08-17T02:45:28.180Z,99869.59
2022-08-17T02:47:31.140Z,99871.16
2022-08-17T02:49:32.720Z,99866.81
2022-08-17T02:51:34.450Z,99866.03
2022-08-17T02:53:36.311Z,99862.09
2022-08-17T02:55:41.309Z,99863.28
2022-08-17T02:57:42.988Z,99863.69
2022-08-17T02:59:48.920Z,99860.50
2022-08-17T03:01:51.020Z,99868.78
2022-08-17T03:03:54.023Z,99862.47
2022-08-17T03:05:55.633Z,99869.16
2022-08-17T03:07:57.342Z,99870.72
2022-08-17T03:09:58.983Z,99871.13
2022-08-17T03:12:06.451Z,99869.94
2022-08-17T03:14:08.048Z,99866.44
2022-08-17T03:16:09.869Z,99866.03
2022-08-17T03:18:19.384Z,99862.09
2022-08-17T03:20:31.403Z,99861.69
2022-08-17T03:22:38.397Z,99860.13
2022-08-17T03:24:40.280Z,99861.69
2022-08-17T03:26:41.818Z,99860.50
2022-08-17T03:28:43.453Z,99857.34
2022-08-17T03:30:45.094Z,99858.13
2022-08-17T03:32:49.378Z,99860.09
2022-08-17T03:34:51.149Z,99864.41
2022-08-17T03:36:54.103Z,99859.28
2022-08-17T03:38:55.645Z,99856.94
2022-08-17T03:40:59.894Z,99849.09
2022-08-17T03:43:06.801Z,99845.16
2022-08-17T03:45:15.381Z,99854.19
2022-08-17T03:47:17.125Z,99848.69
2022-08-17T03:49:18.721Z,99847.50
2022-08-17T03:51:23.362Z,99848.69
2022-08-17T03:53:26.277Z,99852.97
2022-08-17T03:55:36.068Z,99845.94
2022-08-17T03:57:38.180Z,99841.59
2022-08-17T03:59:39.753Z,99844.72
2022-08-17T04:01:43.290Z,99846.69
2022-08-17T04:03:47.741Z,99839.59
2022-08-17T04:05:49.415Z,99839.97
2022-08-17T04:07:51.032Z,99842.34
2022-08-17T04:09:54.279Z,99850.22
2022-08-17T04:12:02.392Z,99855.31
2022-08-17T04:14:07.254Z,99853.38
2022-08-17T04:16:08.832Z,99871.84
2022-08-17T04:18:10.934Z,99880.09
2022-08-17T04:20:14.533Z,99894.88
2022-08-17T04:22:32.024Z,99915.47
2022-08-17T04:24:35.628Z,99931.16
2022-08-17T04:26:53.484Z,99929.28
2022-08-17T04:28:56.794Z,99935.25
2022-08-17T04:31:01.232Z,99931.38
2022-08-17T04:33:07.297Z,99938.50
2022-08-17T04:35:09.494Z,99948.69
2022-08-17T04:37:11.055Z,99938.84
2022-08-17T04:39:12.704Z,99938.84
2022-08-17T04:41:15.187Z,99949.47
2022-08-17T04:43:22.014Z,99940.84
2022-08-17T04:45:23.594Z,99944.78
2022-08-17T04:47:25.703Z,99953.41
2022-08-17T04:49:27.349Z,99943.19
2022-08-17T04:51:31.324Z,99962.44
2022-08-17T04:53:33.145Z,99976.56
2022-08-17T04:55:34.828Z,99975.34
2022-08-17T04:57:39.313Z,99973.75
2022-08-17T04:59:43.528Z,99966.72
2022-08-17T05:01:48.046Z,99964.75
2022-08-17T05:03:49.685Z,99963.16
2022-08-17T05:05:51.316Z,99971.41
2022-08-17T05:07:52.964Z,99967.91
2022-08-17T05:09:54.528Z,99971.81
2022-08-17T05:11:59.936Z,99963.63
2022-08-17T05:14:01.594Z,99963.69
2022-08-17T05:16:05.064Z,99962.16
2022-08-17T05:18:07.279Z,99962.56
2022-08-17T05:20:09.907Z,99962.59
2022-08-17T05:22:11.535Z,99962.28
2022-08-17T05:24:38.352Z,99970.97
2022-08-17T05:26:36.448Z,99963.13
2022-08-17T05:28:38.183Z,99973.78
2022-08-17T05:30:42.459Z,99967.88
2022-08-17T05:32:53.143Z,99960.44
2022-08-17T05:34:56.084Z,99965.53
2022-08-17T05:36:57.938Z,99965.94
2022-08-17T05:38:59.528Z,99965.94
2022-08-17T05:41:04.626Z,99968.25
2022-08-17T05:43:09.464Z,99969.81
2022-08-17T05:45:11.633Z,99976.09
2022-08-17T05:47:13.467Z,99975.28
2022-08-17T05:49:18.819Z,99968.97
2022-08-17T05:51:51.221Z,99977.63
2022-08-17T05:54:00.540Z,99985.00
2022-08-17T05:56:30.264Z,99986.19
2022-08-17T05:58:42.025Z,99980.69
2022-08-17T06:00:50.881Z,99971.69
2022-08-17T06:03:11.945Z,99978.81
2022-08-17T06:05:27.673Z,99974.09
2022-08-17T06:07:35.510Z,99977.16
2022-08-17T06:09:43.661Z,99977.13
2022-08-17T06:11:53.683Z,99962.97
2022-08-17T06:14:18.452Z,99957.84
2022-08-17T06:16:33.740Z,99947.66
2022-08-17T06:18:43.967Z,99950.78
2022-08-17T06:20:52.237Z,99954.41
2022-08-17T06:23:02.099Z,99961.41
2022-08-17T06:25:10.191Z,99953.22
2022-08-17T06:27:18.333Z,99952.84
2022-08-17T06:29:38.537Z,99947.75
2022-08-17T06:31:40.681Z,99937.94
2022-08-17T06:33:42.457Z,99941.84
2022-08-17T06:35:55.799Z,99950.47
2022-08-17T06:38:09.442Z,99956.69
2022-08-17T06:40:56.146Z,99948.81
2022-08-17T06:43:22.976Z,99951.97
2022-08-17T06:45:30.172Z,99954.41
2022-08-17T06:47:36.026Z,99966.63
2022-08-17T06:49:47.322Z,99965.41
2022-08-17T06:52:03.801Z,99966.16
2022-08-17T06:54:10.937Z,99977.56
2022-08-17T06:56:20.364Z,99968.88
2022-08-17T06:58:24.146Z,99970.06
2022-08-17T07:00:36.931Z,99973.56
2022-08-17T07:02:51.481Z,99981.81
2022-08-17T07:04:54.754Z,99987.31
2022-08-17T07:07:03.161Z,99979.81
2022-08-17T07:09:10.051Z,99971.56
2022-08-17T07:11:15.339Z,99968.50
2022-08-17T07:13:33.996Z,99975.69
2022-08-17T07:15:42.099Z,99987.06
2022-08-17T07:17:48.015Z,99976.81
2022-08-17T07:20:06.509Z,99982.66
2022-08-17T07:22:21.225Z,99991.78
2022-08-17T07:24:33.134Z,99990.97
2022-08-17T07:26:34.972Z,99990.97
2022-08-17T07:28:36.946Z,99993.88
2022-08-17T07:30:47.447Z,99990.81
2022-08-17T07:32:52.772Z,99987.09
2022-08-17T07:35:12.809Z,99997.88
2022-08-17T07:37:19.206Z,99994.97
2022-08-17T07:39:27.015Z,99995.31
2022-08-17T07:41:57.646Z,100000.56
2022-08-17T07:43:53.626Z,100005.03
2022-08-17T07:46:14.233Z,100011.59
2022-08-17T07:48:20.301Z,100010.53
2022-08-17T07:50:28.754Z,99995.16
2022-08-17T07:52:48.276Z,100006.00
2022-08-17T07:54:53.979Z,100000.22
2022-08-17T07:56:57.321Z,100006.78
2022-08-17T07:59:07.433Z,100004.22
2022-08-17T08:01:11.905Z,99993.13
2022-08-17T08:03:24.645Z,99993.34
2022-08-17T08:05:49.243Z,100000.00
2022-08-17T08:07:56.850Z,99991.38
2022-08-17T08:10:06.598Z,99987.09
2022-08-17T08:12:33.546Z,99994.97
2022-08-17T08:14:35.527Z,100003.13
2022-08-17T08:16:37.191Z,100018.72
2022-08-17T08:18:54.210Z,100031.31
2022-08-17T08:21:01.148Z,100032.03
2022-08-17T08:23:14.733Z,100022.16
2022-08-17T08:25:25.352Z,100028.13
2022-08-17T08:27:41.807Z,100031.72
2022-08-17T08:29:51.610Z,100021.63
2022-08-17T08:32:01.273Z,100024.47
2022-08-17T08:34:59.016Z,100014.66
2022-08-17T08:36:58.125Z,100019.66
2022-08-17T08:39:17.638Z,100016.56
2022-08-17T08:41:36.737Z,100015.47
2022-08-17T08:43:52.814Z,100023.81
2022-08-17T08:46:02.463Z,100027.72
2022-08-17T08:48:45.847Z,100021.78
2022-08-17T08:50:49.184Z,100024.59
2022-08-17T08:53:08.516Z,100021.84
2022-08-17T08:55:20.851Z,100012.06
2022-08-17T08:57:33.763Z,99994.81
2022-08-17T08:59:44.306Z,100007.13
2022-08-17T09:01:58.464Z,100017.34
2022-08-17T09:04:25.873Z,100027.13
2022-08-17T09:06:39.200Z,100029.25
2022-08-17T09:08:54.031Z,100022.28
2022-08-17T09:11:05.074Z,100019.28
2022-08-17T09:13:16.313Z,100009.84
2022-08-17T09:15:21.808Z,99994.88
2022-08-17T09:17:35.461Z,99989.88
2022-08-17T09:19:44.646Z,99985.63
2022-08-17T09:21:51.760Z,99970.78
2022-08-17T09:24:00.966Z,99973.59
2022-08-17T09:26:11.826Z,99984.22
2022-08-17T09:28:18.937Z,99986.56
2022-08-17T09:30:20.898Z,99995.34
2022-08-17T09:32:36.676Z,99984.81
2022-08-17T09:34:48.376Z,99977.81
2022-08-17T09:37:01.008Z,99989.25
2022-08-17T09:39:07.765Z,100011.66
2022-08-17T09:41:19.700Z,100017.63
2022-08-17T09:43:33.944Z,100021.22
2022-08-17T09:45:41.707Z,100038.19
2022-08-17T09:47:50.356Z,100033.50
2022-08-17T09:49:56.626Z,100028.00
2022-08-17T09:52:03.371Z,100038.25
2022-08-17T09:54:38.516Z,100054.41
2022-08-17T09:57:05.888Z,100058.38
2022-08-17T09:59:43.043Z,100056.03
2022-08-17T10:01:54.251Z,100047.00
2022-08-17T10:04:10.625Z,100043.84
2022-08-17T10:06:21.971Z,100037.53
2022-08-17T10:08:36.207Z,100044.22
2022-08-17T10:10:52.374Z,100059.59
2022-08-17T10:13:06.063Z,100074.56
2022-08-17T10:18:34.608Z,100075.38
2022-08-17T10:20:46.413Z,100071.44
2022-08-17T10:22:54.956Z,100070.28
2022-08-17T10:25:21.807Z,100063.56
2022-08-17T10:27:32.320Z,100047.81
2022-08-17T10:29:49.152Z,100059.25
2022-08-17T10:31:57.853Z,100074.25
2022-08-17T10:34:21.142Z,100105.69
2022-08-17T10:36:32.892Z,100113.53
2022-08-17T10:38:39.843Z,100117.88
2022-08-17T10:40:48.239Z,100115.94
2022-08-17T10:42:56.714Z,100113.59
2022-08-17T10:45:05.293Z,100117.13
2022-08-17T10:47:09.016Z,100113.59
2022-08-17T10:49:32.263Z,100118.72
2022-08-17T10:51:37.095Z,100117.53
2022-08-17T10:53:52.636Z,100117.13
2022-08-17T10:56:38.176Z,100123.88
2022-08-17T10:58:47.319Z,100125.03
2022-08-17T11:01:08.121Z,100116.75
2022-08-17T11:03:18.601Z,100120.28
2022-08-17T11:05:44.118Z,100125.78
2022-08-17T11:08:04.563Z,100119.03
2022-08-17T11:10:21.761Z,100131.09
2022-08-17T11:12:37.672Z,100124.41
2022-08-17T11:14:55.176Z,100129.94
2022-08-17T11:17:15.482Z,100123.91
2022-08-17T11:19:55.735Z,100125.47
2022-08-17T11:22:17.072Z,100142.78
2022-08-17T11:24:21.427Z,100133.56
2022-08-17T11:26:28.219Z,100134.84
2022-08-17T11:28:32.655Z,100134.09
2022-08-17T11:30:45.942Z,100135.19
2022-08-17T11:32:54.576Z,100126.69
2022-08-17T11:35:08.575Z,100129.88
2022-08-17T11:37:36.249Z,100121.31
2022-08-17T11:40:28.577Z,100125.66
2022-08-17T11:42:51.817Z,100144.41
2022-08-17T11:44:57.813Z,100135.47
2022-08-17T11:47:11.087Z,100140.00
2022-08-17T11:49:20.665Z,100138.78
2022-08-17T11:51:24.276Z,100131.75
2022-08-17T11:54:21.450Z,100128.22
2022-08-17T11:56:41.179Z,100139.94
2022-08-17T11:58:44.791Z,100134.44
2022-08-17T12:00:55.953Z,100123.78
2022-08-17T12:03:36.011Z,100121.06
2022-08-17T12:05:39.273Z,100128.91
2022-08-17T12:07:44.428Z,100130.09
2022-08-17T12:09:50.830Z,100124.22
2022-08-17T12:12:12.481Z,100126.22
2022-08-17T12:14:24.247Z,100137.63
2022-08-17T12:16:31.078Z,100132.22
2022-08-17T12:18:36.181Z,100137.72
2022-08-17T12:20:45.080Z,100129.06
2022-08-17T12:22:58.528Z,100115.59
2022-08-17T12:25:08.782Z,100125.81
2022-08-17T12:27:13.182Z,100112.84
2022-08-17T12:29:18.492Z,100104.91
2022-08-17T12:31:46.232Z,100099.34
2022-08-17T12:33:49.062Z,100105.25
2022-08-17T12:35:59.652Z,100107.25
2022-08-17T12:38:03.234Z,100104.84
2022-08-17T12:40:16.940Z,100105.25
2022-08-17T12:42:23.844Z,100101.34
2022-08-17T12:44:28.795Z,100101.41
2022-08-17T12:46:32.853Z,100093.13
2022-08-17T12:48:35.162Z,100084.06
2022-08-17T12:50:38.996Z,100069.47
2022-08-17T12:52:43.511Z,100072.22
2022-08-17T12:54:51.026Z,100077.69
2022-08-17T12:56:53.723Z,100074.56
2022-08-17T12:58:55.523Z,100060.78
2022-08-17T13:01:02.813Z,100063.56
2022-08-17T13:03:06.923Z,100059.63
2022-08-17T13:05:16.884Z,100059.25
2022-08-17T13:07:31.267Z,100049.81
2022-08-17T13:09:40.354Z,100050.22
2022-08-17T13:11:48.409Z,100045.88
2022-08-17T13:13:52.202Z,100043.09
2022-08-17T13:15:56.851Z,100034.03
2022-08-17T13:18:03.100Z,100038.78
2022-08-17T13:20:13.715Z,100041.47
2022-08-17T13:22:15.575Z,100033.81
2022-08-17T13:24:20.060Z,100042.03
2022-08-17T13:26:28.195Z,100025.59
2022-08-17T13:28:35.810Z,100020.88
2022-08-17T13:30:38.187Z,100018.09
2022-08-17T13:32:44.263Z,100013.03
2022-08-17T13:35:13.016Z,100017.72
2022-08-17T13:37:30.642Z,100012.03
2022-08-17T13:39:41.707Z,100023.69
2022-08-17T13:41:46.785Z,100029.09
2022-08-17T13:43:48.584Z,100033.06
2022-08-17T13:45:52.627Z,100029.06
2022-08-17T13:48:05.527Z,100026.75
2022-08-17T13:50:20.301Z,100023.97
2022-08-17T13:52:37.983Z,100019.00
2022-08-17T13:54:40.772Z,100019.41
2022-08-17T13:56:57.036Z,100014.38
2022-08-17T13:59:01.178Z,100005.72
2022-08-17T14:01:31.208Z,100006.59
2022-08-17T14:03:32.867Z,99997.25
2022-08-17T14:05:38.270Z,100003.72
2022-08-17T14:07:40.067Z,100000.91
2022-08-17T14:09:49.941Z,99991.59
2022-08-17T14:11:54.498Z,99993.34
2022-08-17T14:13:56.053Z,99986.59
2022-08-17T14:15:57.672Z,99974.31
2022-08-17T14:17:59.732Z,99972.53
2022-08-17T14:20:02.005Z,99972.00
2022-08-17T14:22:06.392Z,99969.03
2022-08-17T14:24:16.811Z,99955.38
2022-08-17T14:26:18.437Z,99961.47
2022-08-17T14:28:21.478Z,99964.94
2022-08-17T14:30:24.990Z,99959.69
2022-08-17T14:32:29.127Z,99954.16
2022-08-17T14:34:30.760Z,99966.31
2022-08-17T14:36:32.467Z,99964.88
2022-08-17T14:38:34.128Z,99952.22
2022-08-17T14:40:37.099Z,99956.38
2022-08-17T14:42:42.306Z,99954.53
2022-08-17T14:44:45.368Z,99951.03
2022-08-17T14:46:47.032Z,99952.25
2022-08-17T14:48:48.632Z,99949.66
2022-08-17T14:50:50.414Z,99950.53
2022-08-17T14:52:52.108Z,99954.63
2022-08-17T14:54:53.742Z,99957.47
2022-08-17T14:57:02.861Z,99952.97
2022-08-17T14:59:17.210Z,99954.69
2022-08-17T15:01:21.445Z,99956.72
2022-08-17T15:03:23.256Z,99954.09
2022-08-17T15:05:28.101Z,99951.63
2022-08-17T15:07:30.307Z,99958.63
2022-08-17T15:09:33.125Z,99960.56
2022-08-17T15:11:38.746Z,99954.28
2022-08-17T15:13:53.071Z,99950.34
2022-08-17T15:15:55.757Z,99951.69
2022-08-17T15:17:59.145Z,99953.66
2022-08-17T15:20:00.941Z,99953.66
2022-08-17T15:22:02.605Z,99954.91
2022-08-17T15:24:05.794Z,99953.34
2022-08-17T15:26:07.674Z,99939.50
2022-08-17T15:28:09.606Z,99946.97
2022-08-17T15:30:14.695Z,99941.44
2022-08-17T15:32:26.055Z,99950.88
2022-08-17T15:34:29.107Z,99947.34
2022-08-17T15:36:31.607Z,99945.03
2022-08-17T15:38:34.321Z,99943.91
2022-08-17T15:40:37.701Z,99947.56
2022-08-17T15:42:39.420Z,99945.97
2022-08-17T15:44:41.080Z,99943.19
2022-08-17T15:46:42.660Z,99941.63
2022-08-17T15:48:47.602Z,99927.31
2022-08-17T15:50:50.682Z,99924.16
2022-08-17T15:52:58.249Z,99920.69
2022-08-17T15:55:00.893Z,99927.09
2022-08-17T15:57:02.502Z,99923.53
2022-08-17T15:59:04.744Z,99923.16
2022-08-17T16:01:16.992Z,99927.88
2022-08-17T16:03:58.452Z,99926.75
2022-08-17T16:05:51.109Z,99936.19
2022-08-17T16:07:53.616Z,99927.88
2022-08-17T16:09:55.433Z,99925.22
2022-08-17T16:11:57.135Z,99931.50
2022-08-17T16:13:58.794Z,99944.97
2022-08-17T16:16:00.873Z,99941.81
2022-08-17T16:18:02.965Z,99937.91
2022-08-17T16:20:05.813Z,99936.72
2022-08-17T16:22:11.370Z,99939.50
2022-08-17T16:24:14.989Z,99943.47
2022-08-17T16:26:17.753Z,99941.94
2022-08-17T16:28:20.535Z,99940.38
2022-08-17T16:30:27.233Z,99941.50
2022-08-17T16:32:31.378Z,99947.13
2022-08-17T16:34:34.367Z,99934.44
2022-08-17T16:36:36.015Z,99936.41
2022-08-17T16:38:39.193Z,99940.00
2022-08-17T16:40:42.713Z,99925.22
2022-08-17T16:42:45.911Z,99925.22
2022-08-17T16:44:47.603Z,99931.19
2022-08-17T16:46:49.461Z,99935.22
2022-08-17T16:48:51.106Z,99933.72
2022-08-17T16:51:03.207Z,99930.53
2022-08-17T16:53:08.778Z,99925.38
2022-08-17T16:55:13.462Z,99924.97
2022-08-17T16:57:15.559Z,99930.53
2022-08-17T16:59:29.966Z,99930.16
2022-08-17T17:01:32.187Z,99928.59
2022-08-17T17:03:34.755Z,99933.44
2022-08-17T17:05:51.321Z,99930.69
2022-08-17T17:08:03.529Z,99931.44
2022-08-17T17:10:09.076Z,99923.56
2022-08-17T17:12:18.123Z,99922.41
2022-08-17T17:14:23.993Z,99918.00
2022-08-17T17:16:34.843Z,99914.88
2022-08-17T17:18:40.842Z,99909.69
2022-08-17T17:20:49.610Z,99904.53
2022-08-17T17:23:01.929Z,99906.50
2022-08-17T17:25:11.478Z,99907.75
2022-08-17T17:27:27.275Z,99902.63
2022-08-17T17:29:47.930Z,99906.19
2022-08-17T17:31:56.513Z,99897.16
2022-08-17T17:34:03.142Z,99905.09
2022-08-17T17:36:08.337Z,99900.75
2022-08-17T17:38:14.274Z,99903.59
2022-08-17T17:40:22.268Z,99892.13
2022-08-17T17:42:30.576Z,99892.94
2022-08-17T17:44:39.308Z,99887.03
2022-08-17T17:46:44.479Z,99889.47
2022-08-17T17:48:46.457Z,99887.84
2022-08-17T17:50:54.785Z,99887.00
2022-08-17T17:53:02.872Z,99885.00
2022-08-17T17:55:17.710Z,99883.88
2022-08-17T17:57:27.221Z,99880.34
2022-08-17T17:59:45.205Z,99879.94
2022-08-17T18:01:55.208Z,99881.56
2022-08-17T18:04:20.581Z,99880.44
2022-08-17T18:06:33.883Z,99878.50
2022-08-17T18:08:57.645Z,99871.00
2022-08-17T18:11:07.180Z,99880.88
2022-08-17T18:13:16.660Z,99879.69
2022-08-17T18:15:27.661Z,99879.31
2022-08-17T18:17:29.329Z,99880.56
2022-08-17T18:19:31.756Z,99878.66
2022-08-17T18:21:37.447Z,99882.19
2022-08-17T18:23:46.076Z,99884.97
2022-08-17T18:25:50.338Z,99886.66
2022-08-17T18:27:52.240Z,99886.66
2022-08-17T18:29:58.343Z,99892.97
2022-08-17T18:32:17.865Z,99891.75
2022-08-17T18:34:46.022Z,99883.88
2022-08-17T18:36:46.325Z,99889.81
2022-08-17T18:38:48.017Z,99898.94
2022-08-17T18:41:18.576Z,99904.50
2022-08-17T18:43:26.380Z,99896.28
2022-08-17T18:45:33.354Z,99901.88
2022-08-17T18:47:50.944Z,99905.09
2022-08-17T18:49:54.961Z,99918.63
2022-08-17T18:52:10.497Z,99916.28
2022-08-17T18:54:19.416Z,99923.44
2022-08-17T18:56:29.922Z,99930.97
2022-08-17T18:58:32.661Z,99932.56
2022-08-17T19:00:37.606Z,99924.25
2022-08-17T19:02:52.182Z,99930.63
2022-08-17T19:05:10.270Z,99928.66
2022-08-17T19:07:27.141Z,99933.34
2022-08-17T19:09:33.814Z,99939.31
2022-08-17T19:11:35.829Z,99937.75
2022-08-17T19:13:42.672Z,99940.94
2022-08-17T19:16:11.909Z,99951.22
2022-08-17T19:18:21.046Z,99949.25
2022-08-17T19:20:29.211Z,99951.28
2022-08-17T19:22:43.350Z,99958.44
2022-08-17T19:24:47.813Z,99961.66
2022-08-17T19:26:56.590Z,99956.94
2022-08-17T19:29:02.168Z,99954.56
2022-08-17T19:31:14.641Z,99960.16
2022-08-17T19:33:17.742Z,99962.97
2022-08-17T19:35:23.565Z,99960.16
2022-08-17T19:37:35.223Z,99958.63
2022-08-17T19:39:47.605Z,99961.03
2022-08-17T19:41:58.846Z,99958.66
2022-08-17T19:44:28.515Z,99959.09
2022-08-17T19:46:48.387Z,99956.34
2022-08-17T19:49:02.118Z,99956.03
2022-08-17T19:51:10.468Z,99954.09
2022-08-17T19:53:22.530Z,99950.53
2022-08-17T19:55:29.932Z,99956.06
2022-08-17T19:57:42.805Z,99951.72
2022-08-17T19:59:54.424Z,99953.63
2022-08-17T20:02:01.072Z,99965.88
2022-08-17T20:04:11.100Z,99966.28
2022-08-17T20:06:14.192Z,99960.38
2022-08-17T20:08:19.276Z,99957.63
2022-08-17T20:10:28.374Z,99957.66
2022-08-17T20:12:34.780Z,99950.56
2022-08-17T20:14:41.598Z,99953.34
2022-08-17T20:16:59.278Z,99954.94
2022-08-17T20:19:11.162Z,99961.28
2022-08-17T20:21:20.507Z,99963.66
2022-08-17T20:23:34.947Z,99962.09
2022-08-17T20:25:45.087Z,99952.28
2022-08-17T20:27:51.399Z,99964.53
2022-08-17T20:30:04.763Z,99960.59
2022-08-17T20:32:19.070Z,99959.00
2022-08-17T20:34:38.069Z,99959.78
2022-08-17T20:36:58.072Z,99949.50
2022-08-17T20:38:59.976Z,99955.06
2022-08-17T20:41:12.741Z,99953.13
2022-08-17T20:43:51.407Z,99955.13
2022-08-17T20:46:09.129Z,99956.75
2022-08-17T20:48:36.090Z,99961.50
2022-08-17T20:50:46.869Z,99969.00
2022-08-17T20:52:53.628Z,99974.53
2022-08-17T20:54:56.563Z,99965.47
2022-08-17T20:57:00.822Z,99974.22
2022-08-17T20:59:02.615Z,99968.25
2022-08-17T21:01:12.486Z,99975.75
2022-08-17T21:03:50.148Z,99978.53
2022-08-17T21:06:00.324Z,99976.97
2022-08-17T21:08:13.489Z,99972.63
2022-08-17T21:10:18.098Z,99976.63
2022-08-17T21:12:44.677Z,99966.31
2022-08-17T21:15:00.355Z,99965.16
2022-08-17T21:17:37.431Z,99961.63
2022-08-17T21:20:08.106Z,99964.78
2022-08-17T21:22:25.987Z,99974.28
2022-08-17T21:24:39.428Z,99984.19
2022-08-17T21:26:50.286Z,99997.25
2022-08-17T21:29:31.423Z,100001.25
2022-08-17T21:31:34.319Z,99993.34
2022-08-17T21:33:38.055Z,99988.97
2022-08-17T21:35:49.200Z,99995.66
2022-08-17T21:37:57.916Z,99990.13
2022-08-17T21:40:16.030Z,99994.47
2022-08-17T21:42:22.855Z,99998.03
2022-08-17T21:44:32.076Z,99996.03
2022-08-17T21:46:38.792Z,99995.25
2022-08-17T21:48:42.844Z,99997.59
2022-08-17T21:50:46.643Z,99993.69
2022-08-17T21:52:49.828Z,99992.91
2022-08-17T21:54:55.873Z,100005.53
2022-08-17T21:56:59.571Z,100008.34
2022-08-17T21:59:04.543Z,100005.94
2022-08-17T22:01:27.817Z,100000.81
2022-08-17T22:03:31.385Z,100007.16
2022-08-17T22:05:35.100Z,99997.66
2022-08-17T22:07:40.740Z,100004.03
2022-08-17T22:09:48.127Z,100007.97
2022-08-17T22:11:58.171Z,100000.44
2022-08-17T22:14:00.689Z,100011.09
2022-08-17T22:16:27.676Z,100014.25
2022-08-17T22:18:31.630Z,100009.94
2022-08-17T22:20:33.607Z,100013.91
2022-08-17T22:22:38.647Z,100021.81
2022-08-17T22:24:40.296Z,100016.69
2022-08-17T22:27:04.551Z,100015.50
2022-08-17T22:29:06.208Z,100026.94
2022-08-17T22:31:09.553Z,100027.72
2022-08-17T22:33:37.003Z,100032.88
2022-08-17T22:35:40.799Z,100038.41
2022-08-17T22:37:42.473Z,100040.34
2022-08-17T22:39:44.193Z,100043.53
2022-08-17T22:41:52.453Z,100048.66
2022-08-17T22:43:57.003Z,100056.94
2022-08-17T22:46:07.072Z,100063.22
2022-08-17T22:48:08.805Z,100061.25
2022-08-17T22:50:20.672Z,100067.94
2022-08-17T22:52:32.142Z,100076.22
2022-08-17T22:54:34.501Z,100081.34
2022-08-17T22:56:37.112Z,100082.16
2022-08-17T22:58:43.940Z,100084.91
2022-08-17T23:01:24.494Z,100091.94
2022-08-17T23:03:26.985Z,100096.69
2022-08-17T23:05:28.749Z,100092.78
2022-08-17T23:07:30.765Z,100102.63
2022-08-17T23:09:32.765Z,100111.69
2022-08-17T23:11:49.380Z,100107.38
2022-08-17T23:13:52.644Z,100109.75
2022-08-17T23:15:54.212Z,100108.16
2022-08-17T23:17:57.171Z,100111.31
2022-08-17T23:20:00.475Z,100113.31
2022-08-17T23:22:08.245Z,100127.88
2022-08-17T23:24:10.760Z,100138.53
2022-08-17T23:26:12.338Z,100130.63
